Terminal Aerodrome Forecast
Issued by NWS

Home | Current Version | Previous Version | Text Only | Print | Product List | Glossary On
Versions: 1 2 3 4 5 6 7 8 9 10 11 12 13 14 15 16 17 18 19 20 21 22 23 24 25 26 27 28 29
000
FTUS45 KGJT 251739
TAFMTJ
TAF
KMTJ 251739Z 2518/2618 28007KT P6SM VCSH SCT050 OVC080
     FM260100 26008KT 3SM -SHSN BR OVC025
     FM261200 VRB03KT 2SM -SHSN BR OVC015
     FM261700 VRB03KT P6SM VCSH SCT015 OVC040=

USA.gov is the U.S. government's official web portal to all federal, state and local government web resources and services.